createdAt,value
2023-09-15T00:00:49.544Z,14.95
2023-09-15T00:01:50.566Z,14.93
2023-09-15T00:02:49.584Z,14.88
2023-09-15T00:03:50.631Z,14.88
2023-09-15T00:04:49.493Z,14.89
2023-09-15T00:05:49.546Z,14.85
2023-09-15T00:06:50.523Z,14.81
2023-09-15T00:07:49.491Z,14.8
2023-09-15T00:08:50.521Z,14.81
2023-09-15T00:09:49.579Z,14.81
2023-09-15T00:10:49.500Z,14.77
2023-09-15T00:11:50.501Z,14.7
2023-09-15T00:12:49.534Z,14.69
2023-09-15T00:13:50.558Z,14.75
2023-09-15T00:14:49.516Z,14.74
2023-09-15T00:15:53.728Z,14.78
2023-09-15T00:16:49.530Z,14.78
2023-09-15T00:17:49.732Z,14.76
2023-09-15T00:18:50.718Z,14.72
2023-09-15T00:19:49.514Z,14.72
2023-09-15T00:20:50.522Z,14.68
2023-09-15T00:21:49.654Z,14.67
2023-09-15T00:22:49.528Z,14.66
2023-09-15T00:23:50.530Z,14.68
2023-09-15T00:24:49.606Z,14.67
2023-09-15T00:25:50.566Z,14.64
2023-09-15T00:26:49.604Z,14.62
2023-09-15T00:27:49.604Z,14.62
2023-09-15T00:28:50.567Z,14.64
2023-09-15T00:29:49.596Z,14.63
2023-09-15T00:30:50.655Z,14.6
2023-09-15T00:31:49.602Z,14.59
2023-09-15T00:32:50.855Z,14.6
2023-09-15T00:33:50.618Z,14.63
2023-09-15T00:34:49.547Z,14.61
2023-09-15T00:35:50.557Z,14.56
2023-09-15T00:36:49.571Z,14.56
2023-09-15T00:37:50.595Z,14.54
2023-09-15T00:38:50.626Z,14.56
2023-09-15T00:39:49.595Z,14.55
2023-09-15T00:40:50.599Z,14.54
2023-09-15T00:41:49.570Z,14.53
2023-09-15T00:42:50.667Z,14.56
2023-09-15T00:43:50.638Z,14.58
2023-09-15T00:44:53.652Z,14.54
2023-09-15T00:45:49.692Z,14.52
2023-09-15T00:46:49.658Z,14.49
2023-09-15T00:47:50.607Z,14.45
2023-09-15T00:48:50.821Z,14.45
2023-09-15T00:49:50.626Z,14.47
2023-09-15T00:50:49.635Z,14.44
2023-09-15T00:51:49.668Z,14.44
2023-09-15T00:52:50.664Z,14.43
2023-09-15T00:53:50.638Z,14.45
2023-09-15T00:54:50.606Z,14.47
2023-09-15T00:55:49.606Z,14.45
2023-09-15T00:56:49.655Z,14.45
2023-09-15T00:57:50.661Z,14.45
2023-09-15T00:58:50.884Z,14.43
2023-09-15T00:59:50.594Z,14.42
2023-09-15T01:00:49.672Z,14.37
2023-09-15T01:01:50.661Z,14.38
2023-09-15T01:02:49.665Z,14.36
2023-09-15T01:03:50.719Z,14.33
2023-09-15T01:04:50.660Z,14.37
2023-09-15T01:05:49.661Z,14.34
2023-09-15T01:06:50.706Z,14.34
2023-09-15T01:07:49.637Z,14.35
2023-09-15T01:08:50.949Z,14.37
2023-09-15T01:09:50.712Z,14.4
2023-09-15T01:10:49.639Z,14.38
2023-09-15T01:11:50.626Z,14.4
2023-09-15T01:12:49.763Z,14.39
2023-09-15T01:13:58.007Z,14.4
2023-09-15T01:14:49.684Z,14.36
2023-09-15T01:15:49.806Z,14.32
2023-09-15T01:16:50.826Z,14.28
2023-09-15T01:17:49.681Z,14.24
2023-09-15T01:18:51.336Z,14.27
2023-09-15T01:19:49.652Z,14.28
2023-09-15T01:20:49.710Z,14.28
2023-09-15T01:21:50.718Z,14.25
2023-09-15T01:22:49.684Z,14.21
2023-09-15T01:23:50.695Z,14.24
2023-09-15T01:24:49.747Z,14.25
2023-09-15T01:25:49.666Z,14.19
2023-09-15T01:26:50.691Z,14.18
2023-09-15T01:27:49.742Z,14.16
2023-09-15T01:28:50.744Z,14.2
2023-09-15T01:29:49.724Z,14.22
2023-09-15T01:30:51.936Z,14.24
2023-09-15T01:31:49.700Z,14.25
2023-09-15T01:32:49.733Z,14.28
2023-09-15T01:33:50.759Z,14.28
2023-09-15T01:34:49.715Z,14.33
2023-09-15T01:35:50.737Z,14.29
2023-09-15T01:36:49.772Z,14.28
2023-09-15T01:37:49.708Z,14.27
2023-09-15T01:38:50.677Z,14.26
2023-09-15T01:39:49.776Z,14.29
2023-09-15T01:40:50.697Z,14.24
2023-09-15T01:41:49.699Z,14.22
2023-09-15T01:42:55.373Z,14.19
2023-09-15T01:43:50.757Z,14.19
2023-09-15T01:44:49.769Z,14.2
2023-09-15T01:45:50.835Z,14.19
2023-09-15T01:46:49.759Z,14.18
2023-09-15T01:47:50.795Z,14.19
2023-09-15T01:48:50.781Z,14.21
2023-09-15T01:49:49.739Z,14.22
2023-09-15T01:50:50.723Z,14.21
2023-09-15T01:51:49.794Z,14.17
2023-09-15T01:52:50.727Z,14.16
2023-09-15T01:53:50.737Z,14.18
2023-09-15T01:54:49.768Z,14.17
2023-09-15T01:55:50.765Z,14.16
2023-09-15T01:56:49.782Z,14.17
2023-09-15T01:57:50.803Z,14.16
2023-09-15T01:58:50.768Z,14.17
2023-09-15T01:59:52.773Z,14.17
2023-09-15T02:00:49.842Z,14.16
2023-09-15T02:01:49.805Z,14.16
2023-09-15T02:02:50.808Z,14.13
2023-09-15T02:03:50.770Z,14.13
2023-09-15T02:04:50.785Z,14.15
2023-09-15T02:05:49.796Z,14.17
2023-09-15T02:06:49.818Z,14.15
2023-09-15T02:07:50.752Z,14.11
2023-09-15T02:08:50.793Z,14.09
2023-09-15T02:09:50.831Z,14.14
2023-09-15T02:10:49.768Z,14.09
2023-09-15T02:11:53.864Z,14.06
2023-09-15T02:12:49.825Z,14.06
2023-09-15T02:13:50.777Z,14.02
2023-09-15T02:14:50.814Z,14.02
2023-09-15T02:15:49.804Z,13.99
2023-09-15T02:16:50.817Z,13.96
2023-09-15T02:17:49.835Z,13.97
2023-09-15T02:18:51.232Z,13.98
2023-09-15T02:19:50.772Z,13.98
2023-09-15T02:20:49.827Z,13.96
2023-09-15T02:21:50.792Z,13.98
2023-09-15T02:22:49.797Z,13.96
2023-09-15T02:23:50.830Z,13.97
2023-09-15T02:24:50.957Z,13.97
2023-09-15T02:25:49.803Z,13.97
2023-09-15T02:26:50.819Z,13.95
2023-09-15T02:27:49.891Z,13.96
2023-09-15T02:28:50.800Z,13.95
2023-09-15T02:29:49.858Z,13.94
2023-09-15T02:30:50.037Z,13.89
2023-09-15T02:31:50.916Z,13.84
2023-09-15T02:32:49.819Z,13.84
2023-09-15T02:33:50.889Z,13.83
2023-09-15T02:34:49.821Z,13.86
2023-09-15T02:35:49.874Z,13.83
2023-09-15T02:36:50.932Z,13.84
2023-09-15T02:37:49.823Z,13.83
2023-09-15T02:38:50.921Z,13.85
2023-09-15T02:39:49.890Z,13.85
2023-09-15T02:40:54.040Z,13.83
2023-09-15T02:41:49.873Z,13.8
2023-09-15T02:42:49.934Z,13.81
2023-09-15T02:43:50.881Z,13.83
2023-09-15T02:44:49.844Z,13.83
2023-09-15T02:45:50.974Z,13.84
2023-09-15T02:46:49.937Z,13.86
2023-09-15T02:47:49.878Z,13.88
2023-09-15T02:48:50.996Z,13.87
2023-09-15T02:49:49.846Z,13.86
2023-09-15T02:50:50.862Z,13.87
2023-09-15T02:51:49.934Z,13.88
2023-09-15T02:52:49.851Z,13.85
2023-09-15T02:53:50.856Z,13.85
2023-09-15T02:54:49.948Z,13.85
2023-09-15T02:55:50.876Z,13.84
2023-09-15T02:56:49.876Z,13.85
2023-09-15T02:57:51.552Z,13.8
2023-09-15T02:58:50.898Z,13.8
2023-09-15T02:59:49.870Z,13.8
2023-09-15T03:00:50.968Z,13.81
2023-09-15T03:01:49.916Z,13.84
2023-09-15T03:02:50.995Z,13.86
2023-09-15T03:03:50.958Z,13.85
2023-09-15T03:04:49.874Z,13.84
2023-09-15T03:05:50.915Z,13.86
2023-09-15T03:06:49.960Z,13.85
2023-09-15T03:07:50.923Z,13.81
2023-09-15T03:08:51.226Z,13.77
2023-09-15T03:09:53.990Z,13.78
2023-09-15T03:10:49.891Z,13.73
2023-09-15T03:11:49.953Z,13.73
2023-09-15T03:12:50.979Z,13.7
2023-09-15T03:13:50.889Z,13.66
2023-09-15T03:14:50.929Z,13.67
2023-09-15T03:15:50.031Z,13.63
2023-09-15T03:16:50.003Z,13.64
2023-09-15T03:17:51.113Z,13.64
2023-09-15T03:18:51.251Z,13.69
2023-09-15T03:19:50.949Z,13.7
2023-09-15T03:20:49.926Z,13.68
2023-09-15T03:21:49.994Z,13.66
2023-09-15T03:22:50.981Z,13.64
2023-09-15T03:23:50.972Z,13.6
2023-09-15T03:24:51.005Z,13.62
2023-09-15T03:25:49.935Z,13.63
2023-09-15T03:26:50.963Z,13.59
2023-09-15T03:27:49.955Z,13.56
2023-09-15T03:28:50.985Z,13.61
2023-09-15T03:29:50.929Z,13.64
2023-09-15T03:30:50.093Z,13.57
2023-09-15T03:31:51.061Z,13.54
2023-09-15T03:32:49.957Z,13.51
2023-09-15T03:33:51.014Z,13.55
2023-09-15T03:34:50.979Z,13.57
2023-09-15T03:35:49.970Z,13.54
2023-09-15T03:36:50.968Z,13.55
2023-09-15T03:37:49.956Z,13.56
2023-09-15T03:38:54.080Z,13.56
2023-09-15T03:39:49.993Z,13.56
2023-09-15T03:40:49.975Z,13.58
2023-09-15T03:41:51.021Z,13.57
2023-09-15T03:42:50.038Z,13.54
2023-09-15T03:43:51.011Z,13.53
2023-09-15T03:44:49.985Z,13.52
2023-09-15T03:45:50.095Z,13.49
2023-09-15T03:46:51.069Z,13.46
2023-09-15T03:47:50.022Z,13.49
2023-09-15T03:48:51.170Z,13.46
2023-09-15T03:49:49.981Z,13.49
2023-09-15T03:50:49.986Z,13.49
2023-09-15T03:51:50.991Z,13.47
2023-09-15T03:52:49.996Z,13.44
2023-09-15T03:53:50.999Z,13.43
2023-09-15T03:54:50.004Z,13.49
2023-09-15T03:55:51.056Z,13.46
2023-09-15T03:56:50.006Z,13.47
2023-09-15T03:57:50.075Z,13.47
2023-09-15T03:58:51.026Z,13.46
2023-09-15T03:59:50.056Z,13.48
2023-09-15T04:00:51.063Z,13.44
2023-09-15T04:01:50.098Z,13.39
2023-09-15T04:02:50.076Z,13.41
2023-09-15T04:03:51.091Z,13.4
2023-09-15T04:04:50.026Z,13.44
2023-09-15T04:05:51.050Z,13.42
2023-09-15T04:06:50.106Z,13.39
2023-09-15T04:07:58.100Z,13.36
2023-09-15T04:08:51.023Z,13.36
2023-09-15T04:09:50.100Z,13.4
2023-09-15T04:10:51.053Z,13.39
2023-09-15T04:11:50.028Z,13.37
2023-09-15T04:12:51.101Z,13.35
2023-09-15T04:13:51.034Z,13.38
2023-09-15T04:14:50.085Z,13.42
2023-09-15T04:15:51.047Z,13.44
2023-09-15T04:16:50.115Z,13.45
2023-09-15T04:17:51.145Z,13.47
2023-09-15T04:18:51.103Z,13.48
2023-09-15T04:19:50.065Z,13.49
2023-09-15T04:20:51.089Z,13.5
2023-09-15T04:21:50.112Z,13.48
2023-09-15T04:22:51.095Z,13.49
2023-09-15T04:23:51.086Z,13.47
2023-09-15T04:24:51.160Z,13.46
2023-09-15T04:25:50.065Z,13.43
2023-09-15T04:26:50.080Z,13.47
2023-09-15T04:27:51.153Z,13.49
2023-09-15T04:28:51.093Z,13.47
2023-09-15T04:29:56.529Z,13.5
2023-09-15T04:30:50.138Z,13.44
2023-09-15T04:31:50.105Z,13.43
2023-09-15T04:32:51.137Z,13.4
2023-09-15T04:33:51.170Z,13.42
2023-09-15T04:34:51.076Z,13.42
2023-09-15T04:35:50.131Z,13.43
2023-09-15T04:36:54.182Z,13.41
2023-09-15T04:37:50.085Z,13.39
2023-09-15T04:38:51.115Z,13.39
2023-09-15T04:39:51.161Z,13.41
2023-09-15T04:40:50.100Z,13.4
2023-09-15T04:41:51.092Z,13.41
2023-09-15T04:42:50.154Z,13.42
2023-09-15T04:43:51.111Z,13.41
2023-09-15T04:44:51.096Z,13.4
2023-09-15T04:45:50.226Z,13.38
2023-09-15T04:46:51.220Z,13.37
2023-09-15T04:47:50.146Z,13.38
2023-09-15T04:48:51.193Z,13.36
2023-09-15T04:49:51.110Z,13.41
2023-09-15T04:50:50.160Z,13.36
2023-09-15T04:51:51.200Z,13.36
2023-09-15T04:52:50.140Z,13.32
2023-09-15T04:53:51.142Z,13.28
2023-09-15T04:54:50.191Z,13.32
2023-09-15T04:55:50.124Z,13.29
2023-09-15T04:56:51.163Z,13.31
2023-09-15T04:57:50.164Z,13.29
2023-09-15T04:58:51.176Z,13.29
2023-09-15T04:59:50.193Z,13.3
2023-09-15T05:00:50.204Z,13.27
2023-09-15T05:01:51.229Z,13.26
2023-09-15T05:02:50.151Z,13.26
2023-09-15T05:03:51.174Z,13.25
2023-09-15T05:04:50.164Z,13.27
2023-09-15T05:05:54.262Z,13.23
2023-09-15T05:06:50.232Z,13.22
2023-09-15T05:07:50.174Z,13.23
2023-09-15T05:08:51.186Z,13.2
2023-09-15T05:09:50.241Z,13.26
2023-09-15T05:10:51.154Z,13.27
2023-09-15T05:11:50.170Z,13.27
2023-09-15T05:12:50.190Z,13.23
2023-09-15T05:13:51.190Z,13.26
2023-09-15T05:14:50.212Z,13.3
2023-09-15T05:15:51.276Z,13.24
2023-09-15T05:16:50.219Z,13.25
2023-09-15T05:17:50.184Z,13.24
2023-09-15T05:18:51.242Z,13.2
2023-09-15T05:19:50.192Z,13.26
2023-09-15T05:20:51.221Z,13.26
2023-09-15T05:21:50.258Z,13.23
2023-09-15T05:22:51.184Z,13.21
2023-09-15T05:23:53.918Z,13.2
2023-09-15T05:24:50.279Z,13.23
2023-09-15T05:25:51.236Z,13.24
2023-09-15T05:26:50.265Z,13.26
2023-09-15T05:27:51.248Z,13.25
2023-09-15T05:28:51.201Z,13.28
2023-09-15T05:29:50.251Z,13.33
2023-09-15T05:30:51.322Z,13.33
2023-09-15T05:31:50.329Z,13.32
2023-09-15T05:32:51.247Z,13.35
2023-09-15T05:33:51.266Z,13.35
2023-09-15T05:34:54.379Z,13.36
2023-09-15T05:35:50.211Z,13.32
2023-09-15T05:36:50.239Z,13.33
2023-09-15T05:37:51.226Z,13.34
2023-09-15T05:38:51.263Z,13.34
2023-09-15T05:39:51.225Z,13.4
2023-09-15T05:40:50.221Z,13.41
2023-09-15T05:41:50.288Z,13.39
2023-09-15T05:42:51.284Z,13.37
2023-09-15T05:43:51.289Z,13.35
2023-09-15T05:44:51.219Z,13.36
2023-09-15T05:45:50.352Z,13.33
2023-09-15T05:46:50.307Z,13.32
2023-09-15T05:47:51.257Z,13.36
2023-09-15T05:48:51.294Z,13.41
2023-09-15T05:49:51.284Z,13.46
2023-09-15T05:50:50.252Z,13.44
2023-09-15T05:51:51.273Z,13.45
2023-09-15T05:52:50.252Z,13.44
2023-09-15T05:53:51.303Z,13.44
2023-09-15T05:54:51.342Z,13.46
2023-09-15T05:55:50.273Z,13.46
2023-09-15T05:57:51.316Z,13.46
2023-09-15T05:58:51.309Z,13.44
2023-09-15T05:59:51.294Z,13.49
2023-09-15T06:00:50.385Z,13.52
2023-09-15T06:01:51.296Z,13.52
2023-09-15T06:02:50.332Z,13.5
2023-09-15T06:03:58.480Z,13.51
2023-09-15T06:04:51.263Z,13.57
2023-09-15T06:05:50.283Z,13.55
2023-09-15T06:06:51.365Z,13.53
2023-09-15T06:07:50.347Z,13.55
2023-09-15T06:08:51.310Z,13.56
2023-09-15T06:09:50.344Z,13.59
2023-09-15T06:10:50.354Z,13.57
2023-09-15T06:11:51.318Z,13.61
2023-09-15T06:12:50.288Z,13.62
2023-09-15T06:13:51.340Z,13.65
2023-09-15T06:14:50.341Z,13.65
2023-09-15T06:15:50.344Z,13.66
2023-09-15T06:16:51.351Z,13.66
2023-09-15T06:17:50.341Z,13.68
2023-09-15T06:18:51.372Z,13.73
2023-09-15T06:19:50.311Z,13.75
2023-09-15T06:20:51.321Z,13.76
2023-09-15T06:21:50.361Z,13.8
2023-09-15T06:22:50.358Z,13.81
2023-09-15T06:23:51.315Z,13.84
2023-09-15T06:24:50.325Z,13.86
2023-09-15T06:25:51.359Z,13.87
2023-09-15T06:26:50.386Z,13.96
2023-09-15T06:27:51.458Z,13.97
2023-09-15T06:28:51.415Z,14.02
2023-09-15T06:29:50.404Z,14.03
2023-09-15T06:30:51.404Z,14.05
2023-09-15T06:31:50.429Z,14.11
2023-09-15T06:32:54.584Z,14.17
2023-09-15T06:33:51.414Z,14.16
2023-09-15T06:34:50.357Z,14.2
2023-09-15T06:35:51.367Z,14.24
2023-09-15T06:36:50.353Z,14.28
2023-09-15T06:37:51.392Z,14.3
2023-09-15T06:38:51.410Z,14.33
2023-09-15T06:39:50.413Z,14.34
2023-09-15T06:40:51.379Z,14.37
2023-09-15T06:41:50.361Z,14.4
2023-09-15T06:42:51.570Z,14.42
2023-09-15T06:43:51.378Z,14.46
2023-09-15T06:44:50.406Z,14.46
2023-09-15T06:45:51.377Z,14.47
2023-09-15T06:46:50.503Z,14.5
2023-09-15T06:47:51.399Z,14.53
2023-09-15T06:48:51.382Z,14.59
2023-09-15T06:49:51.385Z,14.59
2023-09-15T06:50:50.417Z,14.63
2023-09-15T06:51:50.516Z,14.66
2023-09-15T06:52:51.433Z,14.66
2023-09-15T06:53:51.458Z,14.66
2023-09-15T06:54:51.432Z,14.7
2023-09-15T06:55:50.437Z,14.73
2023-09-15T06:56:50.443Z,14.75
2023-09-15T06:57:51.449Z,14.8
2023-09-15T06:58:51.427Z,14.81
2023-09-15T06:59:51.480Z,14.82
2023-09-15T07:00:50.551Z,14.87
2023-09-15T07:01:54.635Z,14.89
2023-09-15T07:02:50.414Z,14.91
2023-09-15T07:03:51.412Z,14.95
2023-09-15T07:04:51.469Z,14.95
2023-09-15T07:05:50.431Z,15
2023-09-15T07:06:51.433Z,15.03
2023-09-15T07:07:50.481Z,15.07
2023-09-15T07:08:54.059Z,15.12
2023-09-15T07:09:51.474Z,15.11
2023-09-15T07:10:50.497Z,15.13
2023-09-15T07:11:51.502Z,15.17
2023-09-15T07:12:50.483Z,15.2
2023-09-15T07:13:51.730Z,15.21
2023-09-15T07:14:51.423Z,15.22
2023-09-15T07:15:50.487Z,15.17
2023-09-15T07:16:51.576Z,15.2
2023-09-15T07:17:50.486Z,15.26
2023-09-15T07:18:51.507Z,15.31
2023-09-15T07:19:50.460Z,15.34
2023-09-15T07:20:50.486Z,15.39
2023-09-15T07:21:51.511Z,15.43
2023-09-15T07:22:50.457Z,15.46
2023-09-15T07:23:51.462Z,15.49
2023-09-15T07:24:50.466Z,15.52
2023-09-15T07:25:50.508Z,15.57
2023-09-15T07:26:51.481Z,15.62
2023-09-15T07:27:50.514Z,15.67
2023-09-15T07:28:51.483Z,15.69
2023-09-15T07:29:50.525Z,15.68
2023-09-15T07:31:06.473Z,15.72
2023-09-15T07:31:50.526Z,15.8
2023-09-15T07:32:50.525Z,15.84
2023-09-15T07:33:51.543Z,15.86
2023-09-15T07:34:50.523Z,15.86
2023-09-15T07:35:51.487Z,15.88
2023-09-15T07:36:50.494Z,15.9
2023-09-15T07:37:50.567Z,15.95
2023-09-15T07:38:51.617Z,15.99
2023-09-15T07:39:50.553Z,16
2023-09-15T07:40:51.644Z,16.06
2023-09-15T07:41:50.509Z,16.11
2023-09-15T07:42:50.566Z,16.16
2023-09-15T07:43:51.604Z,16.21
2023-09-15T07:44:50.566Z,16.2
2023-09-15T07:45:51.528Z,16.27
2023-09-15T07:46:50.603Z,16.33
2023-09-15T07:47:53.658Z,16.36
2023-09-15T07:48:51.558Z,16.41
2023-09-15T07:49:50.578Z,16.42
2023-09-15T07:50:51.605Z,16.45
2023-09-15T07:51:50.531Z,16.48
2023-09-15T07:52:51.556Z,16.55
2023-09-15T07:53:51.510Z,16.59
2023-09-15T07:54:50.560Z,16.59
2023-09-15T07:55:51.550Z,16.55
2023-09-15T07:56:50.527Z,16.65
2023-09-15T07:57:51.600Z,16.73
2023-09-15T07:58:57.311Z,16.78
2023-09-15T07:59:54.695Z,16.79
2023-09-15T08:00:50.549Z,16.84
2023-09-15T08:01:50.685Z,16.89
2023-09-15T08:02:51.613Z,16.91
2023-09-15T08:03:51.815Z,16.99
2023-09-15T08:04:51.771Z,16.96
2023-09-15T08:05:50.552Z,17.02
2023-09-15T08:06:50.561Z,17.07
2023-09-15T08:07:51.628Z,17.1
2023-09-15T08:08:51.597Z,17.14
2023-09-15T08:09:51.605Z,17.15
2023-09-15T08:10:50.617Z,17.22
2023-09-15T08:11:50.573Z,17.29
2023-09-15T08:12:51.638Z,17.36
2023-09-15T08:13:51.599Z,17.4
2023-09-15T08:14:51.615Z,17.36
2023-09-15T08:15:50.616Z,17.42
2023-09-15T08:16:51.721Z,17.5
2023-09-15T08:17:50.777Z,17.55
2023-09-15T08:18:51.632Z,17.6
2023-09-15T08:19:51.582Z,17.62
2023-09-15T08:20:50.640Z,17.69
2023-09-15T08:21:51.641Z,17.68
2023-09-15T08:22:50.614Z,17.72
2023-09-15T08:23:52.625Z,17.74
2023-09-15T08:24:51.634Z,17.75
2023-09-15T08:25:50.710Z,17.83
2023-09-15T08:26:51.665Z,17.83
2023-09-15T08:27:50.607Z,17.94
2023-09-15T08:28:54.733Z,17.96
2023-09-15T08:29:50.659Z,17.9
2023-09-15T08:30:50.626Z,17.98
2023-09-15T08:31:51.736Z,18.01
2023-09-15T08:32:50.654Z,18.02
2023-09-15T08:33:51.662Z,18.1
2023-09-15T08:34:50.652Z,18.1
2023-09-15T08:35:50.611Z,18.13
2023-09-15T08:36:51.643Z,18.22
2023-09-15T08:37:50.616Z,18.24
2023-09-15T08:38:51.671Z,18.31
2023-09-15T08:39:50.690Z,18.26
2023-09-15T08:40:50.716Z,18.32
2023-09-15T08:41:51.714Z,18.32
2023-09-15T08:42:50.676Z,18.41
2023-09-15T08:43:51.713Z,18.5
2023-09-15T08:44:50.695Z,18.49
2023-09-15T08:45:51.703Z,18.44
2023-09-15T08:46:50.722Z,18.46
2023-09-15T08:47:50.693Z,18.55
2023-09-15T08:48:51.662Z,18.63
2023-09-15T08:49:50.684Z,18.61
2023-09-15T08:50:51.719Z,18.67
2023-09-15T08:51:50.658Z,18.65
2023-09-15T08:52:50.699Z,18.75
2023-09-15T08:53:51.693Z,18.78
2023-09-15T08:54:50.729Z,18.72
2023-09-15T08:55:51.738Z,18.73
2023-09-15T08:56:50.694Z,18.8
2023-09-15T08:57:56.093Z,18.87
2023-09-15T08:58:51.674Z,18.89
2023-09-15T08:59:53.300Z,18.89
2023-09-15T09:00:51.701Z,18.93
2023-09-15T09:01:50.763Z,19.02
2023-09-15T09:02:51.770Z,19.03
2023-09-15T09:03:51.899Z,19.08
2023-09-15T09:04:50.715Z,19.05
2023-09-15T09:05:51.715Z,19.06
2023-09-15T09:06:50.688Z,19.08
2023-09-15T09:07:51.745Z,19.06
2023-09-15T09:08:51.692Z,19.07
2023-09-15T09:09:50.742Z,19.06
2023-09-15T09:10:51.729Z,19.09
2023-09-15T09:11:51.722Z,19.2
2023-09-15T09:12:51.698Z,19.17
2023-09-15T09:13:51.915Z,19.23
2023-09-15T09:14:51.735Z,19.2
2023-09-15T09:15:50.795Z,19.15
2023-09-15T09:16:50.786Z,19.25
2023-09-15T09:17:51.784Z,19.32
2023-09-15T09:18:51.755Z,19.4
2023-09-15T09:19:51.719Z,19.39
2023-09-15T09:20:50.759Z,19.44
2023-09-15T09:21:50.726Z,19.44
2023-09-15T09:22:51.780Z,19.46
2023-09-15T09:23:51.783Z,19.56
2023-09-15T09:26:57.593Z,19.62
2023-09-15T09:27:50.770Z,19.7
2023-09-15T09:28:51.799Z,19.77
2023-09-15T09:29:51.761Z,19.75
2023-09-15T09:30:50.787Z,19.85
2023-09-15T09:31:51.851Z,19.89
2023-09-15T09:32:50.821Z,19.89
2023-09-15T09:33:51.807Z,19.97
2023-09-15T09:35:51.810Z,19.9
2023-09-15T09:36:51.761Z,19.9
2023-09-15T09:37:50.817Z,19.9
2023-09-15T09:38:51.959Z,19.92
2023-09-15T09:39:51.816Z,19.87
2023-09-15T09:40:50.842Z,19.97
2023-09-15T09:41:51.837Z,20.04
2023-09-15T09:42:50.860Z,20.09
2023-09-15T09:43:52.913Z,20.11
2023-09-15T09:44:50.795Z,20.09
2023-09-15T09:45:50.893Z,19.99
2023-09-15T09:46:51.853Z,19.9
2023-09-15T09:47:51.123Z,19.96
2023-09-15T09:48:53.459Z,19.99
2023-09-15T09:49:50.796Z,19.99
2023-09-15T09:50:50.863Z,19.97
2023-09-15T09:51:51.804Z,20.02
2023-09-15T09:52:50.850Z,20.09
2023-09-15T09:53:52.379Z,20.04
2023-09-15T09:54:50.845Z,20.04
2023-09-15T09:55:54.923Z,20.14
2023-09-15T09:56:50.856Z,20.25
2023-09-15T09:57:50.814Z,20.3
2023-09-15T09:58:52.878Z,20.33
2023-09-15T09:59:50.860Z,20.31
2023-09-15T10:00:51.851Z,20.29
2023-09-15T10:01:50.822Z,20.41
2023-09-15T10:02:50.948Z,20.43
2023-09-15T10:03:54.351Z,20.46
2023-09-15T10:04:50.824Z,20.45
2023-09-15T10:05:51.838Z,20.47
2023-09-15T10:06:50.824Z,20.54
2023-09-15T10:07:50.874Z,20.6
2023-09-15T10:08:53.944Z,20.62
2023-09-15T10:09:50.893Z,20.59
2023-09-15T10:10:51.842Z,20.67
2023-09-15T10:11:50.886Z,20.73
2023-09-15T10:12:51.839Z,20.77
2023-09-15T10:13:50.906Z,20.8
2023-09-15T10:14:51.873Z,20.72
2023-09-15T10:15:51.963Z,20.74
2023-09-15T10:16:50.882Z,20.8
2023-09-15T10:17:51.963Z,20.83
2023-09-15T10:18:51.190Z,20.74
2023-09-15T10:19:51.858Z,20.49
2023-09-15T10:20:51.868Z,20.59
2023-09-15T10:21:50.899Z,20.63
2023-09-15T10:22:51.901Z,20.67
2023-09-15T10:23:50.868Z,20.72
2023-09-15T10:24:59.852Z,20.7
2023-09-15T10:25:50.919Z,20.72
2023-09-15T10:26:50.881Z,20.78
2023-09-15T10:27:51.909Z,20.79
2023-09-15T10:28:51.022Z,20.79
2023-09-15T10:29:51.916Z,20.74
2023-09-15T10:30:50.978Z,20.76
2023-09-15T10:31:50.972Z,20.82
2023-09-15T10:32:52.030Z,20.86
2023-09-15T10:33:51.005Z,20.93
2023-09-15T10:34:51.931Z,20.89
2023-09-15T10:35:50.986Z,20.93
2023-09-15T10:36:50.937Z,20.97
2023-09-15T10:37:51.994Z,20.99
2023-09-15T10:38:51.217Z,21.02
2023-09-15T10:39:51.906Z,20.96
2023-09-15T10:40:50.912Z,20.99
2023-09-15T10:41:51.942Z,21.02
2023-09-15T10:42:50.991Z,21.01
2023-09-15T10:43:50.923Z,21.02
2023-09-15T10:44:51.986Z,21
2023-09-15T10:45:50.944Z,21.03
2023-09-15T10:46:51.987Z,21.05
2023-09-15T10:47:50.977Z,21.08
2023-09-15T10:48:51.196Z,21.11
2023-09-15T10:49:51.967Z,21.06
2023-09-15T10:50:50.978Z,21.09
2023-09-15T10:51:51.958Z,21.12
2023-09-15T10:52:50.980Z,21.15
2023-09-15T10:53:58.507Z,21.18
2023-09-15T10:54:50.986Z,21.13
2023-09-15T10:55:50.945Z,21.16
2023-09-15T10:56:52.021Z,21.19
2023-09-15T10:57:50.990Z,21.2
2023-09-15T10:58:51.996Z,21.21
2023-09-15T10:59:51.987Z,21.12
2023-09-15T11:00:51.137Z,21.16
2023-09-15T11:01:52.045Z,21.18
2023-09-15T11:02:51.033Z,21.19
2023-09-15T11:03:52.050Z,21.22
2023-09-15T11:04:52.026Z,21.16
2023-09-15T11:05:50.982Z,21.18
2023-09-15T11:06:52.059Z,21.12
2023-09-15T11:07:51.038Z,21.07
2023-09-15T11:08:52.050Z,21.12
2023-09-15T11:09:52.055Z,21.06
2023-09-15T11:11:52.045Z,21.09
2023-09-15T11:12:51.009Z,21.1
2023-09-15T11:13:52.025Z,21.11
2023-09-15T11:14:51.991Z,21.09
2023-09-15T11:15:52.075Z,21.1
2023-09-15T11:16:51.095Z,21.13
2023-09-15T11:17:51.037Z,21.13
2023-09-15T11:18:52.174Z,21.12
2023-09-15T11:19:52.004Z,21.05
2023-09-15T11:20:52.038Z,21.08
2023-09-15T11:21:51.065Z,21.11
2023-09-15T11:23:02.146Z,21.01
2023-09-15T11:23:51.030Z,21.01
2023-09-15T11:24:54.398Z,20.95
2023-09-15T11:25:52.063Z,20.99
2023-09-15T11:26:51.066Z,21.02
2023-09-15T11:27:52.015Z,20.97
2023-09-15T11:28:51.066Z,20.84
2023-09-15T11:30:04.237Z,20.79
2023-09-15T11:30:52.066Z,20.9
2023-09-15T11:31:51.095Z,20.97
2023-09-15T11:32:52.071Z,21.02
2023-09-15T11:33:51.112Z,21.05
2023-09-15T11:34:52.114Z,21.04
2023-09-15T11:35:52.030Z,21.07
2023-09-15T11:36:51.087Z,21.04
2023-09-15T11:37:52.039Z,21.05
2023-09-15T11:38:51.337Z,21.09
2023-09-15T11:39:53.978Z,21.08
2023-09-15T11:40:51.131Z,21.11
2023-09-15T11:41:51.532Z,21.17
2023-09-15T11:42:52.101Z,21.2
2023-09-15T11:43:51.104Z,21.22
2023-09-15T11:44:52.059Z,21.17
2023-09-15T11:45:51.107Z,21.2
2023-09-15T11:46:51.104Z,21.22
2023-09-15T11:47:52.152Z,21.23
2023-09-15T11:48:51.339Z,21.17
2023-09-15T11:49:52.176Z,21.12
2023-09-15T11:50:51.128Z,21.16
2023-09-15T11:51:55.465Z,21.24
2023-09-15T11:52:51.078Z,21.24
2023-09-15T11:53:51.122Z,21.2
2023-09-15T11:54:52.102Z,21.14
2023-09-15T11:55:51.133Z,21.05
2023-09-15T11:56:52.147Z,21.07
2023-09-15T11:57:51.103Z,21.08
2023-09-15T11:58:51.119Z,21.12
2023-09-15T11:59:52.109Z,21.11
2023-09-15T12:00:51.098Z,21.14
2023-09-15T12:01:52.235Z,21.19
2023-09-15T12:02:51.223Z,21.22
2023-09-15T12:03:51.194Z,21.26
2023-09-15T12:04:52.136Z,21.21
2023-09-15T12:05:51.120Z,21.26
2023-09-15T12:06:52.119Z,21.28
2023-09-15T12:07:51.129Z,21.26
2023-09-15T12:11:05.647Z,21.32
2023-09-15T12:11:52.174Z,21.38
2023-09-15T12:12:51.188Z,21.42
2023-09-15T12:13:52.228Z,21.42
2023-09-15T12:14:52.149Z,21.38
2023-09-15T12:15:51.183Z,21.39
2023-09-15T12:16:52.462Z,21.43
2023-09-15T12:17:51.172Z,21.43
2023-09-15T12:18:52.396Z,21.44
2023-09-15T12:19:52.174Z,21.4
2023-09-15T12:20:55.269Z,21.43
2023-09-15T12:21:51.213Z,21.47
2023-09-15T12:22:51.238Z,21.48
2023-09-15T12:23:52.534Z,21.53
2023-09-15T12:24:52.190Z,21.45
2023-09-15T12:25:52.212Z,21.47
2023-09-15T12:26:51.207Z,21.51
2023-09-15T12:27:51.283Z,21.54
2023-09-15T12:28:52.214Z,21.57
2023-09-15T12:29:52.200Z,21.53
2023-09-15T12:30:52.213Z,21.58
2023-09-15T12:31:51.213Z,21.59
2023-09-15T12:32:51.241Z,21.61
2023-09-15T12:33:52.570Z,21.64
2023-09-15T12:34:52.216Z,21.58
2023-09-15T12:35:52.228Z,21.61
2023-09-15T12:36:51.249Z,21.65
2023-09-15T12:37:52.254Z,21.66
2023-09-15T12:38:51.232Z,21.49
2023-09-15T12:39:52.235Z,21.48
2023-09-15T12:40:52.216Z,21.48
2023-09-15T12:41:59.968Z,21.5
2023-09-15T12:42:52.296Z,21.55
2023-09-15T12:43:51.293Z,21.55
2023-09-15T12:44:52.816Z,21.54
2023-09-15T12:45:52.291Z,21.57
2023-09-15T12:46:51.317Z,21.57
2023-09-15T12:47:52.368Z,21.57
2023-09-15T12:48:51.261Z,21.6
2023-09-15T12:49:55.327Z,21.59
2023-09-15T12:50:51.264Z,21.62
2023-09-15T12:51:51.263Z,21.66
2023-09-15T12:52:52.280Z,21.69
2023-09-15T12:53:51.281Z,21.7
2023-09-15T12:54:52.222Z,21.44
2023-09-15T12:55:51.227Z,21.43
2023-09-15T12:56:51.284Z,21.45
2023-09-15T12:57:52.259Z,21.49
2023-09-15T12:58:51.237Z,21.54
2023-09-15T12:59:52.225Z,21.52
2023-09-15T13:00:51.236Z,21.54
2023-09-15T13:01:51.273Z,21.58
2023-09-15T13:02:52.410Z,21.61